createdAt,value
2022-12-24T00:00:29.846Z,2.89
2022-12-24T00:05:32.879Z,2.90
2022-12-24T00:10:35.881Z,2.91
2022-12-24T00:15:38.771Z,2.91
2022-12-24T00:20:41.969Z,2.90
2022-12-24T00:25:45.934Z,2.89
2022-12-24T00:30:48.735Z,2.91
2022-12-24T00:35:53.307Z,2.93
2022-12-24T00:41:01.761Z,2.93
2022-12-24T00:46:05.273Z,2.94
2022-12-24T00:51:08.458Z,2.92
2022-12-24T00:56:11.454Z,2.94
2022-12-24T01:01:15.661Z,2.95
2022-12-24T01:06:21.641Z,2.97
2022-12-24T01:11:25.331Z,2.97
2022-12-24T01:16:28.254Z,2.97
2022-12-24T01:21:31.208Z,2.99
2022-12-24T01:26:34.289Z,3.00
2022-12-24T01:31:37.525Z,3.00
2022-12-24T01:36:40.888Z,3.02
2022-12-24T01:42:03.121Z,3.03
2022-12-24T01:47:25.791Z,3.05
2022-12-24T01:52:34.700Z,3.05
2022-12-24T01:57:48.236Z,3.04
2022-12-24T02:02:54.135Z,3.01
2022-12-24T02:07:59.787Z,2.99
2022-12-24T02:13:04.311Z,2.97
2022-12-24T02:18:52.227Z,2.98
2022-12-24T02:24:29.069Z,3.02
2022-12-24T02:30:05.756Z,3.01
2022-12-24T02:35:12.899Z,3.02
2022-12-24T02:40:23.631Z,2.99
2022-12-24T02:45:31.821Z,2.95
2022-12-24T02:50:36.046Z,2.97
2022-12-24T02:56:08.210Z,2.97
2022-12-24T03:01:29.300Z,3.01
2022-12-24T03:06:52.645Z,3.05
2022-12-24T03:12:10.176Z,3.11
2022-12-24T03:17:13.695Z,3.17
2022-12-24T03:22:18.142Z,3.16
2022-12-24T03:27:21.699Z,3.12
2022-12-24T03:32:31.039Z,3.00
2022-12-24T03:37:34.165Z,2.91
2022-12-24T03:42:37.205Z,2.82
2022-12-24T03:47:40.335Z,3.32
2022-12-24T03:52:44.110Z,3.99
2022-12-24T03:57:47.168Z,4.55
2022-12-24T04:02:50.136Z,4.94
2022-12-24T04:07:53.230Z,5.22
2022-12-24T04:12:56.175Z,5.42
2022-12-24T04:17:59.062Z,5.68
2022-12-24T04:23:01.874Z,5.88
2022-12-24T04:28:04.846Z,6.05
2022-12-24T04:33:07.860Z,6.16
2022-12-24T04:38:11.196Z,6.27
2022-12-24T04:43:14.583Z,6.38
2022-12-24T04:48:17.481Z,6.58
2022-12-24T04:53:20.466Z,6.77
2022-12-24T04:58:23.491Z,6.83
2022-12-24T05:03:27.273Z,6.84
2022-12-24T05:08:30.211Z,6.88
2022-12-24T05:13:44.155Z,6.92
2022-12-24T05:18:49.742Z,6.82
2022-12-24T05:24:12.059Z,6.38
2022-12-24T05:29:15.235Z,5.92
2022-12-24T05:34:18.223Z,5.52
2022-12-24T05:39:21.442Z,5.17
2022-12-24T05:44:24.336Z,5.07
2022-12-24T05:49:27.546Z,5.57
2022-12-24T05:54:30.613Z,6.20
2022-12-24T05:59:33.674Z,6.73
2022-12-24T06:04:37.837Z,7.08
2022-12-24T06:09:40.729Z,7.37
2022-12-24T06:14:43.662Z,7.49
2022-12-24T06:19:46.545Z,7.57
2022-12-24T06:24:49.429Z,7.72
2022-12-24T06:29:52.369Z,7.74
2022-12-24T06:34:55.221Z,7.78
2022-12-24T06:39:58.081Z,7.80
2022-12-24T06:45:07.634Z,7.84
2022-12-24T06:50:12.042Z,7.78
2022-12-24T06:55:15.174Z,7.09
2022-12-24T07:00:18.670Z,6.35
2022-12-24T07:05:22.813Z,5.84
2022-12-24T07:10:25.814Z,5.37
2022-12-24T07:15:29.159Z,4.96
2022-12-24T07:20:32.281Z,4.71
2022-12-24T07:25:35.584Z,4.52
2022-12-24T07:30:38.620Z,4.37
2022-12-24T07:35:41.331Z,4.24
2022-12-24T07:40:44.219Z,4.15
2022-12-24T07:45:47.140Z,4.14
2022-12-24T07:50:51.118Z,4.15
2022-12-24T07:55:54.341Z,4.17
2022-12-24T08:01:01.024Z,4.22
2022-12-24T08:06:04.370Z,4.33
2022-12-24T08:11:07.931Z,4.49
2022-12-24T08:16:11.052Z,4.65
2022-12-24T08:21:14.311Z,4.78
2022-12-24T08:26:17.383Z,4.92
2022-12-24T08:31:20.421Z,5.08
2022-12-24T08:36:23.457Z,5.31
2022-12-24T08:41:26.378Z,5.84
2022-12-24T08:46:29.368Z,6.31
2022-12-24T08:51:32.392Z,6.74
2022-12-24T08:56:35.566Z,7.18
2022-12-24T09:01:39.070Z,7.62
2022-12-24T09:06:42.080Z,7.92
2022-12-24T09:11:45.699Z,8.24
2022-12-24T09:16:49.731Z,8.48
2022-12-24T09:21:52.828Z,8.73
2022-12-24T09:26:57.907Z,8.96
2022-12-24T09:32:01.262Z,9.14
2022-12-24T09:37:04.413Z,9.26
2022-12-24T09:42:37.501Z,9.45
2022-12-24T09:47:52.828Z,9.70
2022-12-24T09:52:57.503Z,10.01
2022-12-24T09:58:04.456Z,10.27
2022-12-24T10:03:16.735Z,10.38
2022-12-24T10:08:41.375Z,10.42
2022-12-24T10:14:26.557Z,10.42
2022-12-24T10:20:17.460Z,10.39
2022-12-24T10:25:34.538Z,10.35
2022-12-24T10:30:37.478Z,10.35
2022-12-24T10:35:49.101Z,10.40
2022-12-24T10:40:56.121Z,10.43
2022-12-24T10:46:04.845Z,10.51
2022-12-24T10:51:35.802Z,10.58
2022-12-24T10:57:04.687Z,10.67
2022-12-24T11:02:38.120Z,10.87
2022-12-24T11:07:41.580Z,11.00
2022-12-24T11:13:05.789Z,11.11
2022-12-24T11:18:16.025Z,11.23
2022-12-24T11:23:21.023Z,11.38
2022-12-24T11:28:33.686Z,11.44
2022-12-24T11:33:52.904Z,11.47
2022-12-24T11:38:58.464Z,11.51
2022-12-24T11:44:07.908Z,11.53
2022-12-24T11:49:37.239Z,11.58
2022-12-24T11:55:18.126Z,11.60
2022-12-24T12:00:21.307Z,11.55
2022-12-24T12:05:43.126Z,11.62
2022-12-24T12:10:49.641Z,11.67
2022-12-24T12:16:05.847Z,11.60
2022-12-24T12:21:21.229Z,11.50
2022-12-24T12:26:32.321Z,11.43
2022-12-24T12:31:53.778Z,11.43
2022-12-24T12:37:15.249Z,11.38
2022-12-24T12:42:35.673Z,11.26
2022-12-24T12:48:08.343Z,11.12
2022-12-24T12:53:24.266Z,10.98
2022-12-24T12:58:33.266Z,10.95
2022-12-24T13:04:05.891Z,10.88
2022-12-24T13:09:17.628Z,10.84
2022-12-24T13:15:04.164Z,10.76
2022-12-24T13:20:14.934Z,10.66
2022-12-24T13:25:45.253Z,10.56
2022-12-24T13:30:53.308Z,10.45
2022-12-24T13:36:16.665Z,10.34
2022-12-24T13:41:41.184Z,10.23
2022-12-24T13:47:25.402Z,10.09
2022-12-24T13:52:32.872Z,9.99
2022-12-24T13:57:45.459Z,9.98
2022-12-24T14:03:04.513Z,9.90
2022-12-24T14:08:26.390Z,9.82
2022-12-24T14:13:38.511Z,9.70
2022-12-24T14:18:46.122Z,9.62
2022-12-24T14:24:14.270Z,9.53
2022-12-24T14:29:32.060Z,9.42
2022-12-24T14:34:34.954Z,9.36
2022-12-24T14:39:48.105Z,9.20
2022-12-24T14:45:09.244Z,9.03
2022-12-24T14:50:40.544Z,8.90
2022-12-24T14:55:45.986Z,8.82
2022-12-24T15:00:49.942Z,8.76
2022-12-24T15:06:19.192Z,8.68
2022-12-24T15:11:24.396Z,8.51
2022-12-24T15:16:37.179Z,8.40
2022-12-24T15:21:44.293Z,8.34
2022-12-24T15:26:47.316Z,8.28
2022-12-24T15:32:02.112Z,8.23
2022-12-24T15:37:19.649Z,8.19
2022-12-24T15:42:24.464Z,8.20
2022-12-24T15:47:39.700Z,8.27
2022-12-24T15:52:44.026Z,8.42
2022-12-24T15:57:47.627Z,8.44
2022-12-24T16:02:51.117Z,8.42
2022-12-24T16:08:16.877Z,8.47
2022-12-24T16:13:29.175Z,8.43
2022-12-24T16:18:36.806Z,8.30
2022-12-24T16:23:48.741Z,8.22
2022-12-24T16:28:51.669Z,8.21
2022-12-24T16:33:57.926Z,8.20
2022-12-24T16:39:20.468Z,8.06
2022-12-24T16:44:23.450Z,7.95
2022-12-24T16:49:27.278Z,7.93
2022-12-24T16:54:30.210Z,7.91
2022-12-24T16:59:33.025Z,7.85
2022-12-24T17:04:36.320Z,7.71
2022-12-24T17:09:39.231Z,7.62
2022-12-24T17:14:42.556Z,7.63
2022-12-24T17:19:45.429Z,7.61
2022-12-24T17:24:48.850Z,7.44
2022-12-24T17:29:52.163Z,7.33
2022-12-24T17:34:55.030Z,7.11
2022-12-24T17:39:57.986Z,6.90
2022-12-24T17:45:01.038Z,6.73
2022-12-24T17:50:04.601Z,6.54
2022-12-24T17:55:09.049Z,6.38
2022-12-24T18:00:13.195Z,6.36
2022-12-24T18:05:16.328Z,6.25
2022-12-24T18:10:19.602Z,6.05
2022-12-24T18:15:22.993Z,5.88
2022-12-24T18:20:26.094Z,5.91
2022-12-24T18:25:28.931Z,6.14
2022-12-24T18:30:32.086Z,6.29
2022-12-24T18:35:34.845Z,6.44
2022-12-24T18:40:38.041Z,6.65
2022-12-24T18:45:43.103Z,6.85
2022-12-24T18:50:56.709Z,7.07
2022-12-24T18:56:11.108Z,7.27
2022-12-24T19:01:33.012Z,7.43
2022-12-24T19:06:36.975Z,7.47
2022-12-24T19:11:40.643Z,7.47
2022-12-24T19:16:43.717Z,7.42
2022-12-24T19:21:47.607Z,7.30
2022-12-24T19:26:51.020Z,7.17
2022-12-24T19:31:54.208Z,7.06
2022-12-24T19:36:57.258Z,7.00
2022-12-24T19:42:01.320Z,7.11
2022-12-24T19:47:04.655Z,7.28
2022-12-24T19:52:07.987Z,7.35
2022-12-24T19:57:11.793Z,7.27
2022-12-24T20:02:14.734Z,7.16
2022-12-24T20:07:17.858Z,7.03
2022-12-24T20:12:20.806Z,6.94
2022-12-24T20:17:24.044Z,6.97
2022-12-24T20:22:27.045Z,7.07
2022-12-24T20:27:30.161Z,7.07
2022-12-24T20:32:33.205Z,6.98
2022-12-24T20:37:45.711Z,6.85
2022-12-24T20:42:49.500Z,6.70
2022-12-24T20:47:52.449Z,6.57
2022-12-24T20:52:55.385Z,6.50
2022-12-24T20:57:58.506Z,6.48
2022-12-24T21:03:01.709Z,6.38
2022-12-24T21:08:04.912Z,6.39
2022-12-24T21:13:08.419Z,6.46
2022-12-24T21:18:12.021Z,6.36
2022-12-24T21:23:14.907Z,6.20
2022-12-24T21:28:18.465Z,5.98
2022-12-24T21:33:21.776Z,5.84
2022-12-24T21:38:26.014Z,5.92
2022-12-24T21:43:33.861Z,6.07
2022-12-24T21:48:56.877Z,6.32
2022-12-24T21:54:18.766Z,6.49
2022-12-24T21:59:26.358Z,6.55
2022-12-24T22:04:32.463Z,6.47
2022-12-24T22:09:56.981Z,6.38
2022-12-24T22:15:00.108Z,6.25
2022-12-24T22:20:03.956Z,6.05
2022-12-24T22:25:10.165Z,5.86
2022-12-24T22:30:13.308Z,5.69
2022-12-24T22:35:17.071Z,5.51
2022-12-24T22:40:19.976Z,5.38
2022-12-24T22:45:23.085Z,5.36
2022-12-24T22:50:27.341Z,5.34
2022-12-24T22:55:30.240Z,5.28
2022-12-24T23:00:51.508Z,5.21
2022-12-24T23:06:03.946Z,5.15
2022-12-24T23:11:14.503Z,5.08
2022-12-24T23:16:17.503Z,5.04
2022-12-24T23:21:20.677Z,5.01
2022-12-24T23:26:24.369Z,4.98
2022-12-24T23:31:27.728Z,4.95
2022-12-24T23:36:30.667Z,4.93
2022-12-24T23:41:33.711Z,5.01
2022-12-24T23:46:39.163Z,5.13
2022-12-24T23:51:42.585Z,5.17
2022-12-24T23:56:45.689Z,5.22
